createdAt,value
2023-02-05T00:01:17.340Z,66.39
2023-02-05T00:03:59.742Z,66.86
2023-02-05T00:06:48.757Z,66.78
2023-02-05T00:09:30.632Z,67.55
2023-02-05T00:12:19.339Z,67.50
2023-02-05T00:15:08.397Z,68.31
2023-02-05T00:17:56.733Z,68.03
2023-02-05T00:20:39.383Z,68.79
2023-02-05T00:23:21.522Z,69.36
2023-02-05T00:26:10.369Z,69.07
2023-02-05T00:28:59.384Z,69.60
2023-02-05T00:31:48.374Z,69.44
2023-02-05T00:34:30.576Z,69.53
2023-02-05T00:37:19.325Z,70.02
2023-02-05T00:40:01.651Z,69.80
2023-02-05T00:42:50.391Z,69.35
2023-02-05T00:45:39.660Z,69.52
2023-02-05T00:48:21.435Z,69.49
2023-02-05T00:51:03.847Z,69.09
2023-02-05T00:53:52.421Z,68.59
2023-02-05T00:56:34.568Z,68.40
2023-02-05T00:59:24.005Z,68.34
2023-02-05T01:02:14.448Z,68.18
2023-02-05T01:04:57.296Z,68.17
2023-02-05T01:07:46.441Z,68.41
2023-02-05T01:10:28.680Z,68.78
2023-02-05T01:13:18.824Z,68.82
2023-02-05T01:16:01.909Z,68.88
2023-02-05T01:18:56.369Z,69.80
2023-02-05T01:21:45.765Z,70.42
2023-02-05T01:24:28.384Z,70.83
2023-02-05T01:27:10.664Z,70.15
2023-02-05T01:29:59.447Z,70.47
2023-02-05T01:32:48.622Z,70.56
2023-02-05T01:35:31.596Z,70.85
2023-02-05T01:38:21.095Z,69.25
2023-02-05T01:41:04.423Z,69.34
2023-02-05T01:44:14.016Z,68.24
2023-02-05T01:47:04.494Z,67.92
2023-02-05T01:49:52.584Z,67.54
2023-02-05T01:52:35.424Z,66.53
2023-02-05T01:55:24.317Z,67.13
2023-02-05T01:58:08.716Z,66.94
2023-02-05T02:00:57.329Z,66.75
2023-02-05T02:03:39.677Z,66.59
2023-02-05T02:06:29.431Z,66.00
2023-02-05T02:09:14.631Z,66.47
2023-02-05T02:12:05.333Z,65.65
2023-02-05T02:14:50.712Z,65.50
2023-02-05T02:17:50.356Z,65.50
2023-02-05T02:20:43.406Z,65.91
2023-02-05T02:23:54.654Z,66.16
2023-02-05T02:27:04.483Z,66.13
2023-02-05T02:30:06.660Z,66.46
2023-02-05T02:33:11.373Z,66.51
2023-02-05T02:35:53.942Z,66.86
2023-02-05T02:39:10.366Z,66.37
2023-02-05T02:42:12.644Z,66.78
2023-02-05T02:45:15.359Z,65.66
2023-02-05T02:48:05.682Z,65.22
2023-02-05T02:50:57.639Z,65.20
2023-02-05T02:53:46.665Z,65.40
2023-02-05T02:56:39.435Z,63.21
2023-02-05T02:59:32.692Z,61.57
2023-02-05T03:02:24.338Z,62.67
2023-02-05T03:05:12.600Z,62.41
2023-02-05T03:08:07.409Z,60.01
2023-02-05T03:11:03.374Z,58.84
2023-02-05T03:13:46.908Z,58.80
2023-02-05T03:16:40.684Z,59.14
2023-02-05T03:19:37.374Z,57.19
2023-02-05T03:22:26.625Z,55.87
2023-02-05T03:25:10.654Z,52.57
2023-02-05T03:28:01.733Z,48.81
2023-02-05T03:30:54.438Z,47.48
2023-02-05T03:34:04.366Z,47.56
2023-02-05T03:36:57.695Z,46.52
2023-02-05T03:40:08.399Z,43.54
2023-02-05T03:43:01.672Z,41.87
2023-02-05T03:45:55.501Z,41.80
2023-02-05T03:49:11.668Z,40.54
2023-02-05T03:52:25.343Z,39.76
2023-02-05T03:55:11.718Z,38.43
2023-02-05T03:58:12.448Z,37.77
2023-02-05T04:00:55.648Z,38.41
2023-02-05T04:03:46.467Z,36.18
2023-02-05T04:06:29.692Z,37.93
2023-02-05T04:09:19.398Z,37.74
2023-02-05T04:12:03.655Z,35.62
2023-02-05T04:14:54.395Z,38.91
2023-02-05T04:17:44.261Z,37.66
2023-02-05T04:20:34.378Z,34.18
2023-02-05T04:23:25.322Z,34.91
2023-02-05T04:26:14.676Z,37.44
2023-02-05T04:29:06.359Z,34.42
2023-02-05T04:31:53.769Z,35.51
2023-02-05T04:34:42.352Z,32.56
2023-02-05T04:37:32.345Z,33.02
2023-02-05T04:40:22.348Z,33.77
2023-02-05T04:43:04.649Z,32.06
2023-02-05T04:45:53.349Z,33.02
2023-02-05T04:48:42.666Z,31.75
2023-02-05T04:51:25.350Z,32.57
2023-02-05T04:54:07.562Z,31.28
2023-02-05T04:56:56.310Z,33.23
2023-02-05T04:59:38.607Z,30.74
2023-02-05T05:02:27.491Z,33.24
2023-02-05T05:05:10.010Z,31.19
2023-02-05T05:08:00.395Z,32.64
2023-02-05T05:10:49.712Z,31.78
2023-02-05T05:13:32.554Z,31.29
2023-02-05T05:16:14.679Z,32.88
2023-02-05T05:19:09.313Z,31.87
2023-02-05T05:21:57.612Z,32.93
2023-02-05T05:24:40.342Z,32.78
2023-02-05T05:27:24.209Z,30.67
2023-02-05T05:30:13.349Z,32.57
2023-02-05T05:32:55.526Z,34.05
2023-02-05T05:35:44.400Z,32.88
2023-02-05T05:38:26.570Z,33.07
2023-02-05T05:41:33.420Z,30.24
2023-02-05T05:44:22.756Z,31.48
2023-02-05T05:47:05.379Z,34.06
2023-02-05T05:49:47.869Z,34.46
2023-02-05T05:52:36.317Z,33.57
2023-02-05T05:55:25.687Z,32.34
2023-02-05T05:58:08.379Z,32.45
2023-02-05T06:00:58.749Z,32.69
2023-02-05T06:03:40.702Z,30.91
2023-02-05T06:06:29.337Z,30.80
2023-02-05T06:09:11.648Z,31.99
2023-02-05T06:12:00.281Z,31.76
2023-02-05T06:14:42.635Z,30.51
2023-02-05T06:17:31.337Z,30.66
2023-02-05T06:20:13.721Z,30.10
2023-02-05T06:23:02.382Z,32.05
2023-02-05T06:25:44.625Z,30.17
2023-02-05T06:28:33.351Z,29.84
2023-02-05T06:31:15.743Z,29.93
2023-02-05T06:34:04.450Z,30.41
2023-02-05T06:36:46.551Z,30.79
2023-02-05T06:39:35.368Z,30.44
2023-02-05T06:42:18.588Z,30.25
2023-02-05T06:45:07.288Z,29.95
2023-02-05T06:47:49.750Z,30.75
2023-02-05T06:50:39.308Z,31.83
2023-02-05T06:53:21.755Z,29.50
2023-02-05T06:56:11.344Z,28.91
2023-02-05T06:58:53.667Z,30.72
2023-02-05T07:01:43.437Z,30.99
2023-02-05T07:04:25.640Z,29.79
2023-02-05T07:07:14.363Z,30.54
2023-02-05T07:09:57.755Z,31.25
2023-02-05T07:12:46.341Z,30.26
2023-02-05T07:15:35.644Z,30.77
2023-02-05T07:18:17.600Z,32.61
2023-02-05T07:21:06.435Z,30.51
2023-02-05T07:23:55.572Z,30.96
2023-02-05T07:26:37.390Z,30.00
2023-02-05T07:29:19.534Z,31.71
2023-02-05T07:32:08.393Z,30.09
2023-02-05T07:34:56.712Z,31.24
2023-02-05T07:37:39.450Z,30.50
2023-02-05T07:40:28.727Z,30.51
2023-02-05T07:43:10.327Z,31.08
2023-02-05T07:46:04.138Z,31.22
2023-02-05T07:48:53.685Z,29.65
2023-02-05T07:51:41.559Z,30.34
2023-02-05T07:54:24.438Z,30.15
2023-02-05T07:57:12.734Z,30.78
2023-02-05T07:59:55.373Z,34.86
2023-02-05T08:02:54.675Z,34.94
2023-02-05T08:05:36.942Z,35.46
2023-02-05T08:08:26.368Z,35.52
2023-02-05T08:11:11.639Z,32.81
2023-02-05T08:14:00.330Z,34.23
2023-02-05T08:16:49.319Z,36.33
2023-02-05T08:19:31.607Z,34.62
2023-02-05T08:22:20.337Z,34.34
2023-02-05T08:25:08.695Z,35.07
2023-02-05T08:27:51.422Z,35.83
2023-02-05T08:30:39.865Z,33.00
2023-02-05T08:33:22.325Z,32.98
2023-02-05T08:36:11.790Z,37.66
2023-02-05T08:38:53.406Z,31.89
2023-02-05T08:41:38.420Z,31.52
2023-02-05T08:44:27.412Z,33.81
2023-02-05T08:47:16.594Z,34.07
2023-02-05T08:49:59.394Z,32.16
2023-02-05T08:52:48.637Z,33.10
2023-02-05T08:55:31.476Z,33.19
2023-02-05T08:58:20.757Z,34.64
2023-02-05T09:01:10.371Z,33.73
2023-02-05T09:03:58.619Z,33.63
2023-02-05T09:06:41.639Z,31.31
2023-02-05T09:09:31.627Z,32.97
2023-02-05T09:12:14.368Z,31.47
2023-02-05T09:15:02.577Z,30.56
2023-02-05T09:17:45.342Z,31.41
2023-02-05T09:20:33.717Z,32.51
2023-02-05T09:23:18.434Z,29.88
2023-02-05T09:26:08.292Z,30.71
2023-02-05T09:28:51.418Z,30.03
2023-02-05T09:31:40.680Z,33.93
2023-02-05T09:34:23.328Z,34.18
2023-02-05T09:37:05.488Z,32.89
2023-02-05T09:43:05.684Z,31.90
2023-02-05T09:46:10.357Z,32.63
2023-02-05T09:49:25.648Z,30.75
2023-02-05T09:52:20.392Z,32.45
2023-02-05T09:55:32.916Z,32.92
2023-02-05T09:58:23.337Z,36.20
2023-02-05T10:01:20.834Z,36.85
2023-02-05T10:04:17.445Z,35.85
2023-02-05T10:07:27.234Z,33.40
2023-02-05T10:10:31.384Z,32.99
2023-02-05T10:13:37.791Z,33.32
2023-02-05T10:16:33.324Z,36.93
2023-02-05T10:20:05.521Z,36.58
2023-02-05T10:22:59.279Z,39.94
2023-02-05T10:25:51.279Z,39.78
2023-02-05T10:29:06.286Z,39.96
2023-02-05T10:31:50.878Z,41.37
2023-02-05T10:34:54.328Z,42.29
2023-02-05T10:37:51.541Z,41.80
2023-02-05T10:40:51.486Z,38.75
2023-02-05T10:43:45.618Z,40.36
2023-02-05T10:46:40.412Z,38.45
2023-02-05T10:49:40.688Z,38.30
2023-02-05T10:52:29.370Z,39.52
2023-02-05T10:55:12.981Z,38.00
2023-02-05T10:58:02.302Z,39.22
2023-02-05T11:00:44.820Z,39.03
2023-02-05T11:03:33.332Z,40.28
2023-02-05T11:06:18.700Z,41.14
2023-02-05T11:09:07.354Z,39.28
2023-02-05T11:11:49.642Z,40.05
2023-02-05T11:14:45.667Z,40.17
2023-02-05T11:17:34.866Z,41.99
2023-02-05T11:20:32.505Z,39.58
2023-02-05T11:23:32.062Z,40.18
2023-02-05T11:26:25.324Z,39.68
2023-02-05T11:29:32.586Z,37.39
2023-02-05T11:32:31.404Z,38.83
2023-02-05T11:35:27.842Z,41.13
2023-02-05T11:38:18.281Z,38.56
2023-02-05T11:41:04.662Z,37.92
2023-02-05T11:44:01.387Z,41.20
2023-02-05T11:47:00.077Z,39.49
2023-02-05T11:49:46.353Z,43.26
2023-02-05T11:52:34.411Z,42.79
2023-02-05T11:55:48.358Z,41.09
2023-02-05T11:58:39.797Z,41.10
2023-02-05T12:01:33.365Z,42.23
2023-02-05T12:04:21.441Z,43.40
2023-02-05T12:07:17.440Z,41.79
2023-02-05T12:10:06.786Z,44.61
2023-02-05T12:13:30.332Z,42.71
2023-02-05T12:16:26.675Z,42.42
2023-02-05T12:19:30.962Z,44.11
2023-02-05T12:22:18.560Z,46.47
2023-02-05T12:25:14.395Z,46.45
2023-02-05T12:28:13.655Z,46.79
2023-02-05T12:31:16.303Z,46.59
2023-02-05T12:34:14.264Z,47.46
2023-02-05T12:37:37.131Z,47.62
2023-02-05T12:40:40.274Z,48.06
2023-02-05T12:43:48.727Z,48.96
2023-02-05T12:46:52.365Z,49.51
2023-02-05T12:49:58.592Z,49.27
2023-02-05T12:52:54.287Z,50.93
2023-02-05T12:55:55.543Z,50.81
2023-02-05T12:58:46.341Z,50.52
2023-02-05T13:01:53.753Z,50.61
2023-02-05T13:04:40.331Z,51.64
2023-02-05T13:07:42.607Z,51.88
2023-02-05T13:10:36.336Z,50.89
2023-02-05T13:13:40.611Z,50.96
2023-02-05T13:16:27.329Z,49.23
2023-02-05T13:19:42.266Z,49.46
2023-02-05T13:22:58.326Z,50.36
2023-02-05T13:26:11.317Z,50.51
2023-02-05T13:29:13.677Z,50.96
2023-02-05T13:32:10.601Z,52.19
2023-02-05T13:35:06.300Z,52.87
2023-02-05T13:38:33.915Z,53.41
2023-02-05T13:41:26.353Z,51.61
2023-02-05T13:44:20.660Z,52.41
2023-02-05T13:47:36.377Z,51.95
2023-02-05T13:50:37.811Z,52.57
2023-02-05T13:53:52.344Z,54.85
2023-02-05T13:56:56.647Z,53.79
2023-02-05T13:59:51.262Z,54.11
2023-02-05T14:02:50.485Z,53.68
2023-02-05T14:05:45.358Z,55.49
2023-02-05T14:08:32.815Z,55.64
2023-02-05T14:11:21.317Z,55.32
2023-02-05T14:14:51.604Z,55.61
2023-02-05T14:17:40.357Z,56.21
2023-02-05T14:20:33.626Z,57.83
2023-02-05T14:23:54.316Z,57.45
2023-02-05T14:26:54.652Z,58.04
2023-02-05T14:29:49.336Z,59.00
2023-02-05T14:32:37.743Z,59.72
2023-02-05T14:35:51.361Z,59.24
2023-02-05T14:38:41.578Z,59.93
2023-02-05T14:41:27.350Z,60.43
2023-02-05T14:44:41.374Z,60.40
2023-02-05T14:47:28.088Z,61.19
2023-02-05T14:50:26.258Z,60.90
2023-02-05T14:53:11.424Z,61.27
2023-02-05T14:55:57.698Z,61.66
2023-02-05T14:58:53.342Z,61.96
2023-02-05T15:01:38.698Z,61.18
2023-02-05T15:04:51.300Z,61.61
2023-02-05T15:07:36.589Z,62.52
2023-02-05T15:10:31.351Z,62.17
2023-02-05T15:13:26.525Z,63.18
2023-02-05T15:16:25.347Z,62.39
2023-02-05T15:19:23.685Z,62.90
2023-02-05T15:22:07.724Z,62.71
2023-02-05T15:24:58.317Z,62.00
2023-02-05T15:27:48.289Z,62.35
2023-02-05T15:30:41.687Z,62.57
2023-02-05T15:33:46.635Z,62.85
2023-02-05T15:36:40.389Z,63.15
2023-02-05T15:40:16.596Z,63.12
2023-02-05T15:43:06.293Z,63.32
2023-02-05T15:45:55.620Z,62.97
2023-02-05T15:48:40.641Z,63.18
2023-02-05T15:51:41.614Z,62.75
2023-02-05T15:54:29.250Z,63.92
2023-02-05T15:57:30.327Z,64.32
2023-02-05T16:00:17.708Z,64.93
2023-02-05T16:03:11.410Z,64.82
2023-02-05T16:06:00.644Z,65.43
2023-02-05T16:08:55.266Z,65.71
2023-02-05T16:11:50.314Z,65.91
2023-02-05T16:14:38.589Z,65.77
2023-02-05T16:17:29.212Z,65.76
2023-02-05T16:20:39.333Z,66.00
2023-02-05T16:23:54.322Z,65.81
2023-02-05T16:26:53.537Z,66.61
2023-02-05T16:29:48.078Z,66.49
2023-02-05T16:32:45.237Z,67.10
2023-02-05T16:35:56.598Z,67.03
2023-02-05T16:38:45.290Z,66.91
2023-02-05T16:41:37.539Z,67.21
2023-02-05T16:44:39.278Z,67.56
2023-02-05T16:47:25.603Z,68.01
2023-02-05T16:50:46.673Z,68.03
2023-02-05T16:53:45.751Z,68.34
2023-02-05T16:56:43.288Z,68.28
2023-02-05T16:59:30.075Z,67.58
2023-02-05T17:02:36.322Z,68.86
2023-02-05T17:05:35.137Z,69.71
2023-02-05T17:08:24.290Z,68.71
2023-02-05T17:11:13.064Z,69.08
2023-02-05T17:14:30.632Z,69.21
2023-02-05T17:17:26.692Z,69.52
2023-02-05T17:20:31.427Z,69.64
2023-02-05T17:23:25.586Z,69.16
2023-02-05T17:26:08.381Z,69.75
2023-02-05T17:29:15.114Z,68.96
2023-02-05T17:31:58.277Z,69.01
2023-02-05T17:34:46.666Z,69.10
2023-02-05T17:37:29.374Z,69.56
2023-02-05T17:40:20.705Z,70.00
2023-02-05T17:43:03.313Z,70.06
2023-02-05T17:45:51.589Z,69.98
2023-02-05T17:48:33.268Z,69.52
2023-02-05T17:51:27.684Z,69.69
2023-02-05T17:54:10.654Z,69.58
2023-02-05T17:57:03.030Z,69.71
2023-02-05T18:00:32.401Z,70.75
2023-02-05T18:03:14.665Z,70.59
2023-02-05T18:06:03.320Z,70.97
2023-02-05T18:08:53.649Z,70.72
2023-02-05T18:11:36.272Z,70.69
2023-02-05T18:14:26.173Z,70.68
2023-02-05T18:17:09.230Z,70.13
2023-02-05T18:20:04.260Z,70.65
2023-02-05T18:22:52.688Z,70.14
2023-02-05T18:25:35.248Z,69.55
2023-02-05T18:28:24.555Z,68.70
2023-02-05T18:31:14.414Z,67.23
2023-02-05T18:34:02.646Z,66.81
2023-02-05T18:36:45.257Z,65.66
2023-02-05T18:39:34.584Z,64.96
2023-02-05T18:42:19.320Z,64.87
2023-02-05T18:45:09.598Z,65.03
2023-02-05T18:47:52.271Z,64.53
2023-02-05T18:50:40.602Z,65.22
2023-02-05T18:53:23.308Z,65.42
2023-02-05T18:56:17.437Z,65.50
2023-02-05T18:59:11.542Z,65.58
2023-02-05T19:02:00.681Z,65.45
2023-02-05T19:04:43.212Z,65.70
2023-02-05T19:07:32.603Z,66.76
2023-02-05T19:10:15.282Z,67.13
2023-02-05T19:13:05.880Z,67.59
2023-02-05T19:15:48.361Z,66.86
2023-02-05T19:18:36.506Z,66.34
2023-02-05T19:21:29.870Z,65.93
2023-02-05T19:24:12.519Z,66.64
2023-02-05T19:27:04.242Z,66.68
2023-02-05T19:29:47.623Z,66.88
2023-02-05T19:32:36.202Z,67.96
2023-02-05T19:35:18.710Z,69.99
2023-02-05T19:38:07.295Z,69.42
2023-02-05T19:40:49.582Z,69.17
2023-02-05T19:43:39.318Z,68.33
2023-02-05T19:46:21.574Z,68.45
2023-02-05T19:49:19.366Z,66.81
2023-02-05T19:52:02.976Z,66.52
2023-02-05T19:54:52.363Z,66.00
2023-02-05T19:57:35.640Z,65.85
2023-02-05T20:00:24.319Z,66.32
2023-02-05T20:03:08.390Z,65.87
2023-02-05T20:05:57.188Z,65.77
2023-02-05T20:08:39.570Z,65.51
2023-02-05T20:11:28.235Z,66.14
2023-02-05T20:14:11.324Z,65.65
2023-02-05T20:17:01.249Z,65.71
2023-02-05T20:20:10.321Z,66.35
2023-02-05T20:23:02.198Z,66.56
2023-02-05T20:25:44.528Z,66.20
2023-02-05T20:28:35.245Z,67.27
2023-02-05T20:31:42.324Z,67.27
2023-02-05T20:34:27.523Z,68.13
2023-02-05T20:37:20.254Z,67.66
2023-02-05T20:40:09.600Z,67.57
2023-02-05T20:42:54.500Z,67.47
2023-02-05T20:45:44.862Z,66.76
2023-02-05T20:48:26.684Z,67.79
2023-02-05T20:51:20.566Z,67.95
2023-02-05T20:54:06.572Z,67.61
2023-02-05T20:56:57.208Z,67.98
2023-02-05T20:59:48.277Z,67.87
2023-02-05T21:02:37.377Z,67.94
2023-02-05T21:05:20.526Z,69.06
2023-02-05T21:08:09.238Z,67.66
2023-02-05T21:10:51.577Z,68.01
2023-02-05T21:13:40.214Z,68.03
2023-02-05T21:16:25.622Z,67.83
2023-02-05T21:19:16.246Z,67.51
2023-02-05T21:22:11.034Z,67.21
2023-02-05T21:25:00.212Z,67.13
2023-02-05T21:27:42.733Z,66.91
2023-02-05T21:30:31.249Z,66.85
2023-02-05T21:33:20.248Z,65.56
2023-02-05T21:36:13.166Z,65.16
2023-02-05T21:39:02.566Z,65.27
2023-02-05T21:41:53.618Z,63.79
2023-02-05T21:44:36.555Z,62.98
2023-02-05T21:47:25.338Z,62.84
2023-02-05T21:50:08.497Z,62.88
2023-02-05T21:52:57.286Z,61.81
2023-02-05T21:55:40.451Z,61.55
2023-02-05T21:58:29.234Z,61.54
2023-02-05T22:01:22.620Z,62.58
2023-02-05T22:04:23.265Z,63.01
2023-02-05T22:07:05.431Z,64.85
2023-02-05T22:09:54.214Z,66.35
2023-02-05T22:12:36.543Z,66.59
2023-02-05T22:15:26.213Z,65.98
2023-02-05T22:18:08.520Z,66.31
2023-02-05T22:20:57.162Z,66.57
2023-02-05T22:23:39.520Z,66.05
2023-02-05T22:26:31.213Z,65.42
2023-02-05T22:29:22.234Z,65.63
2023-02-05T22:32:11.259Z,66.48
2023-02-05T22:34:53.976Z,66.96
2023-02-05T22:37:44.237Z,67.29
2023-02-05T22:40:27.635Z,67.91
2023-02-05T22:43:16.199Z,67.16
2023-02-05T22:45:58.562Z,67.43
2023-02-05T22:48:49.177Z,67.89
2023-02-05T22:51:41.584Z,68.49
2023-02-05T22:54:30.178Z,67.99
2023-02-05T22:57:12.563Z,68.17
2023-02-05T23:00:02.161Z,67.03
2023-02-05T23:02:44.506Z,66.81
2023-02-05T23:05:34.656Z,67.08
2023-02-05T23:08:17.520Z,67.26
2023-02-05T23:11:12.199Z,67.71
2023-02-05T23:13:54.488Z,68.90
2023-02-05T23:16:46.386Z,68.28
2023-02-05T23:19:29.544Z,68.58
2023-02-05T23:22:18.274Z,68.88
2023-02-05T23:25:01.566Z,68.31
2023-02-05T23:27:50.209Z,68.68
2023-02-05T23:30:32.462Z,69.29
2023-02-05T23:33:21.246Z,68.58
2023-02-05T23:36:03.513Z,70.00
2023-02-05T23:38:52.167Z,71.88
2023-02-05T23:41:45.073Z,74.04
2023-02-05T23:44:34.260Z,73.04
2023-02-05T23:47:16.528Z,73.11
2023-02-05T23:50:05.279Z,72.48
2023-02-05T23:52:47.516Z,72.19
2023-02-05T23:55:36.420Z,74.26
2023-02-05T23:58:26.445Z,75.10
